sensor_id;sensor_type;location;lat;lon;timestamp;pressure;altitude;pressure_sealevel;temperature;humidity
48636;BME280;34429;52.332;5.614;2022-12-29T00:02:01;99837.44;;;11.61;100.00
48636;BME280;34429;52.332;5.614;2022-12-29T00:04:29;99838.59;;;11.58;100.00
48636;BME280;34429;52.332;5.614;2022-12-29T00:06:58;99819.91;;;11.56;100.00
48636;BME280;34429;52.332;5.614;2022-12-29T00:09:26;99818.75;;;11.59;100.00
48636;BME280;34429;52.332;5.614;2022-12-29T00:11:57;99810.13;;;11.64;100.00
48636;BME280;34429;52.332;5.614;2022-12-29T00:14:25;99808.97;;;11.66;100.00
48636;BME280;34429;52.332;5.614;2022-12-29T00:17:06;99812.84;;;11.64;100.00
48636;BME280;34429;52.332;5.614;2022-12-29T00:19:34;99791.59;;;11.69;100.00
48636;BME280;34429;52.332;5.614;2022-12-29T00:22:15;99802.72;;;11.57;100.00
48636;BME280;34429;52.332;5.614;2022-12-29T00:24:55;99786.19;;;11.69;100.00
48636;BME280;34429;52.332;5.614;2022-12-29T00:27:39;99796.31;;;11.67;100.00
48636;BME280;34429;52.332;5.614;2022-12-29T00:30:25;99785.38;;;11.68;100.00
48636;BME280;34429;52.332;5.614;2022-12-29T00:33:09;99777.13;;;11.62;100.00
48636;BME280;34429;52.332;5.614;2022-12-29T00:35:50;99769.38;;;11.58;100.00
48636;BME280;34429;52.332;5.614;2022-12-29T00:38:20;99764.63;;;11.69;100.00
48636;BME280;34429;52.332;5.614;2022-12-29T00:41:01;99774.94;;;11.65;100.00
48636;BME280;34429;52.332;5.614;2022-12-29T00:43:44;99762.97;;;11.68;100.00
48636;BME280;34429;52.332;5.614;2022-12-29T00:46:24;99762.13;;;11.84;100.00
48636;BME280;34429;52.332;5.614;2022-12-29T00:48:53;99755.41;;;11.63;100.00
48636;BME280;34429;52.332;5.614;2022-12-29T00:51:33;99753.16;;;11.83;100.00
48636;BME280;34429;52.332;5.614;2022-12-29T00:54:01;99755.19;;;11.81;100.00
48636;BME280;34429;52.332;5.614;2022-12-29T00:56:29;99753.84;;;11.94;100.00
48636;BME280;34429;52.332;5.614;2022-12-29T00:59:02;99741.56;;;11.74;100.00
48636;BME280;34429;52.332;5.614;2022-12-29T01:01:30;99736.66;;;11.95;100.00
48636;BME280;34429;52.332;5.614;2022-12-29T01:03:59;99727.25;;;11.82;100.00
48636;BME280;34429;52.332;5.614;2022-12-29T01:06:27;99737.16;;;11.82;100.00
48636;BME280;34429;52.332;5.614;2022-12-29T01:08:55;99730.94;;;11.81;100.00
48636;BME280;34429;52.332;5.614;2022-12-29T01:11:36;99715.59;;;11.82;100.00
48636;BME280;34429;52.332;5.614;2022-12-29T01:14:06;99722.16;;;11.79;100.00
48636;BME280;34429;52.332;5.614;2022-12-29T01:16:35;99724.38;;;11.84;100.00
48636;BME280;34429;52.332;5.614;2022-12-29T01:19:03;99714.06;;;11.79;100.00
48636;BME280;34429;52.332;5.614;2022-12-29T01:21:32;99716.09;;;11.94;100.00
48636;BME280;34429;52.332;5.614;2022-12-29T01:24:00;99712.72;;;11.83;100.00
48636;BME280;34429;52.332;5.614;2022-12-29T01:26:29;99707.16;;;11.85;100.00
48636;BME280;34429;52.332;5.614;2022-12-29T01:28:57;99701.59;;;11.86;100.00
48636;BME280;34429;52.332;5.614;2022-12-29T01:31:27;99705.84;;;11.81;100.00
48636;BME280;34429;52.332;5.614;2022-12-29T01:33:55;99703.00;;;11.74;100.00
48636;BME280;34429;52.332;5.614;2022-12-29T01:36:24;99712.94;;;11.73;100.00
48636;BME280;34429;52.332;5.614;2022-12-29T01:38:52;99697.94;;;11.71;100.00
48636;BME280;34429;52.332;5.614;2022-12-29T01:41:20;99707.56;;;11.57;100.00
48636;BME280;34429;52.332;5.614;2022-12-29T01:43:49;99707.41;;;11.50;100.00
48636;BME280;34429;52.332;5.614;2022-12-29T01:46:22;99711.13;;;11.33;100.00
48636;BME280;34429;52.332;5.614;2022-12-29T01:48:55;99711.13;;;11.33;100.00
48636;BME280;34429;52.332;5.614;2022-12-29T01:51:25;99708.94;;;11.20;100.00
48636;BME280;34429;52.332;5.614;2022-12-29T01:53:55;99715.16;;;11.12;100.00
48636;BME280;34429;52.332;5.614;2022-12-29T01:56:24;99709.78;;;11.29;100.00
48636;BME280;34429;52.332;5.614;2022-12-29T01:58:54;99722.22;;;11.21;100.00
48636;BME280;34429;52.332;5.614;2022-12-29T02:01:23;99718.38;;;11.24;100.00
48636;BME280;34429;52.332;5.614;2022-12-29T02:03:54;99729.16;;;11.24;100.00
48636;BME280;34429;52.332;5.614;2022-12-29T02:06:23;99732.66;;;11.25;100.00
48636;BME280;34429;52.332;5.614;2022-12-29T02:08:52;99739.44;;;11.20;100.00
48636;BME280;34429;52.332;5.614;2022-12-29T02:11:21;99749.69;;;11.25;100.00
48636;BME280;34429;52.332;5.614;2022-12-29T02:13:51;99729.47;;;11.21;100.00
48636;BME280;34429;52.332;5.614;2022-12-29T02:16:29;99731.31;;;11.29;100.00
48636;BME280;34429;52.332;5.614;2022-12-29T02:19:06;99735.03;;;11.28;100.00
48636;BME280;34429;52.332;5.614;2022-12-29T02:27:17;99729.31;;;11.47;100.00
48636;BME280;34429;52.332;5.614;2022-12-29T02:32:42;99732.34;;;11.44;100.00
48636;BME280;34429;52.332;5.614;2022-12-29T02:35:15;99730.97;;;11.32;100.00
48636;BME280;34429;52.332;5.614;2022-12-29T02:37:49;99724.25;;;11.36;100.00
48636;BME280;34429;52.332;5.614;2022-12-29T02:40:24;99728.97;;;11.50;100.00
48636;BME280;34429;52.332;5.614;2022-12-29T02:42:55;99722.22;;;11.54;100.00
48636;BME280;34429;52.332;5.614;2022-12-29T02:45:28;99725.59;;;11.40;100.00
48636;BME280;34429;52.332;5.614;2022-12-29T02:48:03;99734.69;;;11.47;100.00
48636;BME280;34429;52.332;5.614;2022-12-29T02:50:32;99720.88;;;11.42;100.00
48636;BME280;34429;52.332;5.614;2022-12-29T02:53:01;99726.59;;;11.55;100.00
48636;BME280;34429;52.332;5.614;2022-12-29T02:55:32;99712.47;;;11.37;100.00
48636;BME280;34429;52.332;5.614;2022-12-29T03:00:54;99707.56;;;11.57;100.00
48636;BME280;34429;52.332;5.614;2022-12-29T03:03:29;99712.28;;;11.63;100.00
48636;BME280;34429;52.332;5.614;2022-12-29T03:06:08;99713.81;;;11.57;100.00
48636;BME280;34429;52.332;5.614;2022-12-29T03:08:41;99718.19;;;11.50;100.00
48636;BME280;34429;52.332;5.614;2022-12-29T03:11:12;99709.59;;;11.47;100.00
48636;BME280;34429;52.332;5.614;2022-12-29T03:13:55;99711.44;;;11.46;100.00
48636;BME280;34429;52.332;5.614;2022-12-29T03:16:39;99702.38;;;11.31;100.00
48636;BME280;34429;52.332;5.614;2022-12-29T03:19:15;99706.75;;;11.32;100.00
48636;BME280;34429;52.332;5.614;2022-12-29T03:21:45;99691.94;;;11.36;100.00
48636;BME280;34429;52.332;5.614;2022-12-29T03:24:29;99688.88;;;11.39;100.00
48636;BME280;34429;52.332;5.614;2022-12-29T03:26:58;99687.56;;;11.27;100.00
48636;BME280;34429;52.332;5.614;2022-12-29T03:29:27;99700.34;;;11.25;100.00
48636;BME280;34429;52.332;5.614;2022-12-29T03:31:57;99700.00;;;11.36;100.00
48636;BME280;34429;52.332;5.614;2022-12-29T03:34:29;99703.03;;;11.25;100.00
48636;BME280;34429;52.332;5.614;2022-12-29T03:37:00;99699.19;;;11.19;100.00
48636;BME280;34429;52.332;5.614;2022-12-29T03:39:30;99701.53;;;11.30;100.00
48636;BME280;34429;52.332;5.614;2022-12-29T03:41:59;99706.09;;;11.30;100.00
48636;BME280;34429;52.332;5.614;2022-12-29T03:44:33;99708.09;;;11.28;100.00
48636;BME280;34429;52.332;5.614;2022-12-29T03:47:01;99716.19;;;11.19;100.00
48636;BME280;34429;52.332;5.614;2022-12-29T03:49:32;99712.28;;;11.05;100.00
48636;BME280;34429;52.332;5.614;2022-12-29T03:52:00;99694.28;;;11.14;100.00
48636;BME280;34429;52.332;5.614;2022-12-29T03:54:28;99698.81;;;11.05;100.00
48636;BME280;34429;52.332;5.614;2022-12-29T03:56:56;99694.78;;;11.10;100.00
48636;BME280;34429;52.332;5.614;2022-12-29T03:59:24;99698.81;;;11.05;100.00
48636;BME280;34429;52.332;5.614;2022-12-29T04:01:52;99692.13;;;11.18;100.00
48636;BME280;34429;52.332;5.614;2022-12-29T04:04:20;99696.66;;;11.01;100.00
48636;BME280;34429;52.332;5.614;2022-12-29T04:06:51;99694.31;;;11.06;100.00
48636;BME280;34429;52.332;5.614;2022-12-29T04:09:19;99691.25;;;11.01;100.00
48636;BME280;34429;52.332;5.614;2022-12-29T04:11:47;99705.91;;;10.90;100.00
48636;BME280;34429;52.332;5.614;2022-12-29T04:14:15;99710.44;;;10.90;100.00
48636;BME280;34429;52.332;5.614;2022-12-29T04:16:43;99696.66;;;10.93;100.00
48636;BME280;34429;52.332;5.614;2022-12-29T04:19:12;99704.72;;;10.93;100.00
48636;BME280;34429;52.332;5.614;2022-12-29T04:21:40;99715.16;;;10.87;100.00
48636;BME280;34429;52.332;5.614;2022-12-29T04:24:10;99717.34;;;11.00;100.00
48636;BME280;34429;52.332;5.614;2022-12-29T04:26:38;99723.59;;;11.09;100.00
48636;BME280;34429;52.332;5.614;2022-12-29T04:29:07;99737.06;;;11.09;100.00
48636;BME280;34429;52.332;5.614;2022-12-29T04:31:35;99725.28;;;11.10;100.00
48636;BME280;34429;52.332;5.614;2022-12-29T04:34:03;99724.25;;;11.11;100.00
48636;BME280;34429;52.332;5.614;2022-12-29T04:36:31;99730.50;;;11.12;100.00
48636;BME280;34429;52.332;5.614;2022-12-29T04:38:59;99734.03;;;11.12;100.00
48636;BME280;34429;52.332;5.614;2022-12-29T04:41:30;99722.59;;;11.10;100.00
48636;BME280;34429;52.332;5.614;2022-12-29T04:43:58;99716.84;;;10.97;100.00
48636;BME280;34429;52.332;5.614;2022-12-29T04:46:26;99717.84;;;10.96;100.00
48636;BME280;34429;52.332;5.614;2022-12-29T04:48:54;99718.53;;;10.90;100.00
48636;BME280;34429;52.332;5.614;2022-12-29T04:51:22;99725.25;;;11.02;100.00
48636;BME280;34429;52.332;5.614;2022-12-29T04:53:50;99731.66;;;11.01;100.00
48636;BME280;34429;52.332;5.614;2022-12-29T04:56:18;99734.34;;;11.01;100.00
48636;BME280;34429;52.332;5.614;2022-12-29T04:58:49;99728.63;;;10.96;100.00
48636;BME280;34429;52.332;5.614;2022-12-29T05:01:17;99724.56;;;10.92;100.00
48636;BME280;34429;52.332;5.614;2022-12-29T05:03:45;99728.94;;;11.01;100.00
48636;BME280;34429;52.332;5.614;2022-12-29T05:06:13;99733.31;;;10.94;100.00
48636;BME280;34429;52.332;5.614;2022-12-29T05:08:41;99719.69;;;10.87;100.00
48636;BME280;34429;52.332;5.614;2022-12-29T05:11:10;99731.63;;;10.84;100.00
48636;BME280;34429;52.332;5.614;2022-12-29T05:13:38;99733.81;;;10.81;100.00
48636;BME280;34429;52.332;5.614;2022-12-29T05:16:08;99730.28;;;10.72;100.00
48636;BME280;34429;52.332;5.614;2022-12-29T05:18:37;99738.34;;;10.80;100.00
48636;BME280;34429;52.332;5.614;2022-12-29T05:21:05;99739.34;;;10.71;100.00
48636;BME280;34429;52.332;5.614;2022-12-29T05:23:33;99737.97;;;10.67;100.00
48636;BME280;34429;52.332;5.614;2022-12-29T05:26:01;99730.78;;;10.67;100.00
48636;BME280;34429;52.332;5.614;2022-12-29T05:28:29;99741.38;;;10.69;100.00
48636;BME280;34429;52.332;5.614;2022-12-29T05:30:57;99738.69;;;10.77;100.00
48636;BME280;34429;52.332;5.614;2022-12-29T05:33:28;99743.91;;;10.71;100.00
48636;BME280;34429;52.332;5.614;2022-12-29T05:35:56;99756.16;;;10.65;100.00
48636;BME280;34429;52.332;5.614;2022-12-29T05:38:24;99750.09;;;10.71;100.00
48636;BME280;34429;52.332;5.614;2022-12-29T05:40:52;99749.25;;;10.62;100.00
48636;BME280;34429;52.332;5.614;2022-12-29T05:43:20;99755.91;;;10.42;100.00
48636;BME280;34429;52.332;5.614;2022-12-29T05:45:48;99741.44;;;10.43;100.00
48636;BME280;34429;52.332;5.614;2022-12-29T05:48:16;99749.69;;;10.49;100.00
48636;BME280;34429;52.332;5.614;2022-12-29T05:50:49;99759.78;;;10.47;100.00
48636;BME280;34429;52.332;5.614;2022-12-29T05:53:18;99764.00;;;10.50;100.00
48636;BME280;34429;52.332;5.614;2022-12-29T05:55:46;99764.84;;;10.50;100.00
48636;BME280;34429;52.332;5.614;2022-12-29T05:58:15;99792.72;;;10.41;100.00
48636;BME280;34429;52.332;5.614;2022-12-29T06:00:43;99773.81;;;10.33;100.00
48636;BME280;34429;52.332;5.614;2022-12-29T06:03:11;99786.97;;;10.36;100.00
48636;BME280;34429;52.332;5.614;2022-12-29T06:05:39;99788.00;;;10.35;100.00
48636;BME280;34429;52.332;5.614;2022-12-29T06:08:10;99784.38;;;10.26;100.00
48636;BME280;34429;52.332;5.614;2022-12-29T06:10:38;99789.88;;;10.16;100.00
48636;BME280;34429;52.332;5.614;2022-12-29T06:13:06;99788.16;;;10.07;100.00
48636;BME280;34429;52.332;5.614;2022-12-29T06:15:34;99782.06;;;10.05;100.00
48636;BME280;34429;52.332;5.614;2022-12-29T06:18:02;99779.78;;;10.10;100.00
48636;BME280;34429;52.332;5.614;2022-12-29T06:20:31;99794.41;;;10.16;100.00
48636;BME280;34429;52.332;5.614;2022-12-29T06:22:59;99787.34;;;10.15;100.00
48636;BME280;34429;52.332;5.614;2022-12-29T06:25:29;99787.69;;;10.20;100.00
48636;BME280;34429;52.332;5.614;2022-12-29T06:27:59;99774.25;;;10.20;100.00
48636;BME280;34429;52.332;5.614;2022-12-29T06:30:27;99784.00;;;10.13;100.00
48636;BME280;34429;52.332;5.614;2022-12-29T06:32:55;99770.94;;;10.26;100.00
48636;BME280;34429;52.332;5.614;2022-12-29T06:35:23;99785.56;;;10.32;100.00
48636;BME280;34429;52.332;5.614;2022-12-29T06:37:51;99785.06;;;10.28;100.00
48636;BME280;34429;52.332;5.614;2022-12-29T06:40:19;99787.34;;;10.41;100.00
48636;BME280;34429;52.332;5.614;2022-12-29T06:42:50;99788.91;;;10.26;100.00
48636;BME280;34429;52.332;5.614;2022-12-29T06:45:18;99796.06;;;10.35;100.00
48636;BME280;34429;52.332;5.614;2022-12-29T06:47:47;99802.34;;;10.26;100.00
48636;BME280;34429;52.332;5.614;2022-12-29T06:50:15;99819.13;;;10.20;100.00
48636;BME280;34429;52.332;5.614;2022-12-29T06:52:43;99806.75;;;10.27;100.00
48636;BME280;34429;52.332;5.614;2022-12-29T06:55:11;99819.78;;;10.13;100.00
48636;BME280;34429;52.332;5.614;2022-12-29T06:57:39;99812.03;;;10.10;100.00
48636;BME280;34429;52.332;5.614;2022-12-29T07:00:11;99823.09;;;10.07;100.00
48636;BME280;34429;52.332;5.614;2022-12-29T07:02:39;99814.81;;;10.00;100.00
48636;BME280;34429;52.332;5.614;2022-12-29T07:05:07;99824.56;;;10.02;100.00
48636;BME280;34429;52.332;5.614;2022-12-29T07:07:35;99826.84;;;10.14;100.00
48636;BME280;34429;52.332;5.614;2022-12-29T07:10:04;99823.19;;;9.97;100.00
48636;BME280;34429;52.332;5.614;2022-12-29T07:12:32;99825.94;;;10.06;100.00
48636;BME280;34429;52.332;5.614;2022-12-29T07:15:00;99823.09;;;10.07;100.00
48636;BME280;34429;52.332;5.614;2022-12-29T07:17:31;99820.56;;;10.06;100.00
48636;BME280;34429;52.332;5.614;2022-12-29T07:19:59;99813.50;;;10.05;100.00
48636;BME280;34429;52.332;5.614;2022-12-29T07:22:27;99814.56;;;10.12;100.00
48636;BME280;34429;52.332;5.614;2022-12-29T07:24:55;99827.19;;;10.20;100.00
48636;BME280;34429;52.332;5.614;2022-12-29T07:27:23;99834.44;;;10.19;100.00
48636;BME280;34429;52.332;5.614;2022-12-29T07:29:51;99828.75;;;10.30;100.00
48636;BME280;34429;52.332;5.614;2022-12-29T07:32:19;99806.84;;;10.17;100.00
48636;BME280;34429;52.332;5.614;2022-12-29T07:34:50;99835.38;;;10.10;100.00
48636;BME280;34429;52.332;5.614;2022-12-29T07:37:18;99834.53;;;10.09;100.00
48636;BME280;34429;52.332;5.614;2022-12-29T07:39:46;99834.63;;;9.99;100.00
48636;BME280;34429;52.332;5.614;2022-12-29T07:42:14;99831.94;;;9.99;100.00
48636;BME280;34429;52.332;5.614;2022-12-29T07:44:42;99828.16;;;9.84;100.00
48636;BME280;34429;52.332;5.614;2022-12-29T07:47:10;99834.34;;;9.85;100.00
48636;BME280;34429;52.332;5.614;2022-12-29T07:49:39;99832.72;;;9.92;100.00
48636;BME280;34429;52.332;5.614;2022-12-29T07:52:09;99836.38;;;9.82;100.00
48636;BME280;34429;52.332;5.614;2022-12-29T07:54:37;99831.75;;;9.93;100.00
48636;BME280;34429;52.332;5.614;2022-12-29T07:57:06;99838.25;;;9.90;100.00
48636;BME280;34429;52.332;5.614;2022-12-29T07:59:34;99837.19;;;9.83;100.00
48636;BME280;34429;52.332;5.614;2022-12-29T08:02:02;99828.22;;;9.92;100.00
48636;BME280;34429;52.332;5.614;2022-12-29T08:04:30;99841.78;;;9.91;100.00
48636;BME280;34429;52.332;5.614;2022-12-29T08:06:58;99838.09;;;9.92;100.00
48636;BME280;34429;52.332;5.614;2022-12-29T08:09:29;99831.19;;;9.89;100.00
48636;BME280;34429;52.332;5.614;2022-12-29T08:11:57;99835.22;;;9.85;100.00
48636;BME280;34429;52.332;5.614;2022-12-29T08:14:25;99821.94;;;9.84;100.00
48636;BME280;34429;52.332;5.614;2022-12-29T08:16:53;99828.31;;;9.82;100.00
48636;BME280;34429;52.332;5.614;2022-12-29T08:19:21;99827.66;;;9.89;100.00
48636;BME280;34429;52.332;5.614;2022-12-29T08:21:49;99826.59;;;9.81;100.00
48636;BME280;34429;52.332;5.614;2022-12-29T08:24:17;99821.81;;;9.93;100.00
48636;BME280;34429;52.332;5.614;2022-12-29T08:26:48;99823.69;;;9.93;100.00
48636;BME280;34429;52.332;5.614;2022-12-29T08:29:16;99822.28;;;9.89;100.00
48636;BME280;34429;52.332;5.614;2022-12-29T08:31:44;99827.25;;;10.02;100.00
48636;BME280;34429;52.332;5.614;2022-12-29T08:34:12;99827.91;;;9.95;100.00
48636;BME280;34429;52.332;5.614;2022-12-29T08:36:41;99841.06;;;10.07;100.00
48636;BME280;34429;52.332;5.614;2022-12-29T08:39:09;99832.31;;;10.31;100.00
48636;BME280;34429;52.332;5.614;2022-12-29T08:41:37;99831.63;;;10.29;100.00
48636;BME280;34429;52.332;5.614;2022-12-29T08:44:08;99837.09;;;10.37;100.00
48636;BME280;34429;52.332;5.614;2022-12-29T08:46:36;99836.00;;;10.30;100.00
48636;BME280;34429;52.332;5.614;2022-12-29T08:49:04;99832.03;;;10.34;100.00
48636;BME280;34429;52.332;5.614;2022-12-29T08:51:32;99836.84;;;10.30;100.00
48636;BME280;34429;52.332;5.614;2022-12-29T08:54:00;99835.00;;;10.31;100.00
48636;BME280;34429;52.332;5.614;2022-12-29T08:56:31;99834.28;;;10.21;100.00
48636;BME280;34429;52.332;5.614;2022-12-29T08:59:00;99839.78;;;10.37;100.00
48636;BME280;34429;52.332;5.614;2022-12-29T09:01:30;99845.16;;;10.37;100.00
48636;BME280;34429;52.332;5.614;2022-12-29T09:04:01;99863.06;;;10.28;100.00
48636;BME280;34429;52.332;5.614;2022-12-29T09:06:29;99850.28;;;10.30;100.00
48636;BME280;34429;52.332;5.614;2022-12-29T09:08:57;99846.59;;;10.31;100.00
48636;BME280;34429;52.332;5.614;2022-12-29T09:11:25;99858.66;;;10.45;100.00
48636;BME280;34429;52.332;5.614;2022-12-29T09:13:54;99856.13;;;10.44;100.00
48636;BME280;34429;52.332;5.614;2022-12-29T09:16:22;99840.75;;;10.36;100.00
48636;BME280;34429;52.332;5.614;2022-12-29T09:18:54;99853.22;;;10.37;100.00
48636;BME280;34429;52.332;5.614;2022-12-29T09:21:22;99850.53;;;10.37;100.00
48636;BME280;34429;52.332;5.614;2022-12-29T09:23:51;99844.31;;;10.37;100.00
48636;BME280;34429;52.332;5.614;2022-12-29T09:26:19;99869.69;;;10.34;100.00
48636;BME280;34429;52.332;5.614;2022-12-29T09:28:47;99877.19;;;10.30;100.00
48636;BME280;34429;52.332;5.614;2022-12-29T09:31:15;99866.88;;;10.44;100.00
48636;BME280;34429;52.332;5.614;2022-12-29T09:33:43;99881.97;;;10.37;100.00
48636;BME280;34429;52.332;5.614;2022-12-29T09:36:14;99869.22;;;10.21;100.00
48636;BME280;34429;52.332;5.614;2022-12-29T09:38:42;99894.44;;;10.20;100.00
48636;BME280;34429;52.332;5.614;2022-12-29T09:41:12;99879.41;;;10.09;100.00
48636;BME280;34429;52.332;5.614;2022-12-29T09:43:44;99875.69;;;9.84;100.00
48636;BME280;34429;52.332;5.614;2022-12-29T09:46:17;99904.47;;;9.91;100.00
48636;BME280;34429;52.332;5.614;2022-12-29T09:48:47;99917.13;;;9.99;100.00
48636;BME280;34429;52.332;5.614;2022-12-29T09:51:21;99933.56;;;9.96;100.00
48636;BME280;34429;52.332;5.614;2022-12-29T09:53:51;99928.09;;;9.88;100.00
48636;BME280;34429;52.332;5.614;2022-12-29T09:56:20;99933.88;;;9.93;100.00
48636;BME280;34429;52.332;5.614;2022-12-29T09:58:50;99937.09;;;9.78;100.00
48636;BME280;34429;52.332;5.614;2022-12-29T10:01:22;99933.75;;;9.76;100.00
48636;BME280;34429;52.332;5.614;2022-12-29T10:03:52;99940.63;;;9.79;100.00
48636;BME280;34429;52.332;5.614;2022-12-29T10:06:24;99949.25;;;9.82;100.00
48636;BME280;34429;52.332;5.614;2022-12-29T10:08:55;99980.72;;;9.72;100.00
48636;BME280;34429;52.332;5.614;2022-12-29T10:11:29;99973.75;;;9.79;100.00
48636;BME280;34429;52.332;5.614;2022-12-29T10:14:07;99968.38;;;9.79;100.00
48636;BME280;34429;52.332;5.614;2022-12-29T10:16:42;99974.03;;;9.76;100.00
48636;BME280;34429;52.332;5.614;2022-12-29T10:19:25;99992.16;;;9.74;100.00
48636;BME280;34429;52.332;5.614;2022-12-29T10:22:03;99974.25;;;9.65;100.00
48636;BME280;34429;52.332;5.614;2022-12-29T10:24:37;99989.75;;;9.71;100.00
48636;BME280;34429;52.332;5.614;2022-12-29T10:27:09;99982.31;;;9.83;100.00
48636;BME280;34429;52.332;5.614;2022-12-29T10:29:39;99990.22;;;9.85;100.00
48636;BME280;34429;52.332;5.614;2022-12-29T10:32:13;99988.31;;;9.77;100.00
48636;BME280;34429;52.332;5.614;2022-12-29T10:34:45;99996.53;;;9.75;100.00
48636;BME280;34429;52.332;5.614;2022-12-29T10:37:18;100006.50;;;9.83;100.00
48636;BME280;34429;52.332;5.614;2022-12-29T10:39:52;99990.94;;;9.87;100.00
48636;BME280;34429;52.332;5.614;2022-12-29T10:42:21;100011.97;;;9.73;100.00
48636;BME280;34429;52.332;5.614;2022-12-29T10:44:53;100006.97;;;9.78;100.00
48636;BME280;34429;52.332;5.614;2022-12-29T10:47:22;100016.66;;;9.89;100.00
48636;BME280;34429;52.332;5.614;2022-12-29T10:49:52;100024.97;;;9.96;100.00
48636;BME280;34429;52.332;5.614;2022-12-29T10:52:23;100034.00;;;9.95;100.00
48636;BME280;34429;52.332;5.614;2022-12-29T10:54:53;100039.09;;;9.98;100.00
48636;BME280;34429;52.332;5.614;2022-12-29T10:57:25;100039.56;;;10.11;100.00
48636;BME280;34429;52.332;5.614;2022-12-29T10:59:54;100033.91;;;10.14;100.00
48636;BME280;34429;52.332;5.614;2022-12-29T11:05:15;100053.44;;;10.07;100.00
48636;BME280;34429;52.332;5.614;2022-12-29T11:08:07;100059.91;;;10.14;100.00
48636;BME280;34429;52.332;5.614;2022-12-29T11:10:40;100064.47;;;10.13;100.00
48636;BME280;34429;52.332;5.614;2022-12-29T11:13:12;100057.84;;;10.26;100.00
48636;BME280;34429;52.332;5.614;2022-12-29T11:15:41;100073.13;;;10.35;100.00
48636;BME280;34429;52.332;5.614;2022-12-29T11:18:19;100071.69;;;10.31;100.00
48636;BME280;34429;52.332;5.614;2022-12-29T11:20:48;100075.50;;;10.38;100.00
48636;BME280;34429;52.332;5.614;2022-12-29T11:23:32;100077.44;;;10.18;100.00
48636;BME280;34429;52.332;5.614;2022-12-29T11:26:07;100081.38;;;10.24;100.00
48636;BME280;34429;52.332;5.614;2022-12-29T11:28:36;100085.28;;;10.29;100.00
48636;BME280;34429;52.332;5.614;2022-12-29T11:31:05;100088.97;;;10.28;100.00
48636;BME280;34429;52.332;5.614;2022-12-29T11:33:34;100086.91;;;10.22;100.00
48636;BME280;34429;52.332;5.614;2022-12-29T11:36:04;100097.38;;;10.43;100.00
48636;BME280;34429;52.332;5.614;2022-12-29T11:38:36;100102.75;;;10.61;100.00
48636;BME280;34429;52.332;5.614;2022-12-29T11:41:05;100098.97;;;10.72;100.00
48636;BME280;34429;52.332;5.614;2022-12-29T11:43:34;100106.44;;;10.78;100.00
48636;BME280;34429;52.332;5.614;2022-12-29T11:46:04;100108.00;;;10.89;100.00
48636;BME280;34429;52.332;5.614;2022-12-29T11:48:34;100104.66;;;10.87;100.00
48636;BME280;34429;52.332;5.614;2022-12-29T11:51:05;100101.31;;;10.93;100.00
48636;BME280;34429;52.332;5.614;2022-12-29T11:53:39;100108.56;;;10.93;100.00
48636;BME280;34429;52.332;5.614;2022-12-29T11:56:10;100116.25;;;10.87;100.00
48636;BME280;34429;52.332;5.614;2022-12-29T11:58:40;100127.28;;;10.76;100.00
48636;BME280;34429;52.332;5.614;2022-12-29T12:01:11;100141.34;;;10.70;100.00
48636;BME280;34429;52.332;5.614;2022-12-29T12:03:44;100127.56;;;10.91;100.00
48636;BME280;34429;52.332;5.614;2022-12-29T12:06:15;100122.03;;;10.93;100.00
48636;BME280;34429;52.332;5.614;2022-12-29T12:08:48;100137.91;;;10.78;100.00
48636;BME280;34429;52.332;5.614;2022-12-29T12:11:22;100126.88;;;10.89;100.00
48636;BME280;34429;52.332;5.614;2022-12-29T12:13:53;100125.34;;;10.86;100.00
48636;BME280;34429;52.332;5.614;2022-12-29T12:16:26;100124.72;;;10.75;100.00
48636;BME280;34429;52.332;5.614;2022-12-29T12:18:57;100128.59;;;10.72;100.00
48636;BME280;34429;52.332;5.614;2022-12-29T12:21:30;100135.75;;;10.63;100.00
48636;BME280;34429;52.332;5.614;2022-12-29T12:24:07;100148.03;;;10.84;100.00
48636;BME280;34429;52.332;5.614;2022-12-29T12:26:42;100130.09;;;10.93;100.00
48636;BME280;34429;52.332;5.614;2022-12-29T12:29:16;100143.25;;;10.96;100.00
48636;BME280;34429;52.332;5.614;2022-12-29T12:31:47;100145.78;;;10.97;100.00
48636;BME280;34429;52.332;5.614;2022-12-29T12:34:19;100156.63;;;10.87;100.00
48636;BME280;34429;52.332;5.614;2022-12-29T12:37:01;100156.31;;;10.91;100.00
48636;BME280;34429;52.332;5.614;2022-12-29T12:39:38;100162.72;;;10.90;100.00
48636;BME280;34429;52.332;5.614;2022-12-29T12:42:13;100169.09;;;10.89;100.00
48636;BME280;34429;52.332;5.614;2022-12-29T12:44:56;100172.00;;;10.95;100.00
48636;BME280;34429;52.332;5.614;2022-12-29T12:50:22;100171.88;;;10.61;100.00
48636;BME280;34429;52.332;5.614;2022-12-29T12:53:11;100169.19;;;10.33;100.00
48636;BME280;34429;52.332;5.614;2022-12-29T12:55:58;100177.00;;;10.36;100.00
48636;BME280;34429;52.332;5.614;2022-12-29T12:58:37;100182.94;;;10.58;100.00
48636;BME280;34429;52.332;5.614;2022-12-29T13:01:18;100175.50;;;10.51;100.00
48636;BME280;34429;52.332;5.614;2022-12-29T13:04:05;100182.28;;;10.56;100.00
48636;BME280;34429;52.332;5.614;2022-12-29T13:06:49;100183.47;;;10.43;100.00
48636;BME280;34429;52.332;5.614;2022-12-29T13:09:43;100191.03;;;10.58;100.00
48636;BME280;34429;52.332;5.614;2022-12-29T13:12:21;100199.75;;;10.42;100.00
48636;BME280;34429;52.332;5.614;2022-12-29T13:15:00;100194.31;;;10.33;100.00
48636;BME280;34429;52.332;5.614;2022-12-29T13:17:36;100197.38;;;10.29;100.00
48636;BME280;34429;52.332;5.614;2022-12-29T13:20:17;100196.56;;;10.28;100.00
48636;BME280;34429;52.332;5.614;2022-12-29T13:22:56;100202.06;;;10.37;100.00
48636;BME280;34429;52.332;5.614;2022-12-29T13:25:35;100197.97;;;10.32;100.00
48636;BME280;34429;52.332;5.614;2022-12-29T13:28:12;100206.47;;;10.28;100.00